Time;durP1;ratioP1;P1;durP2;ratioP2;P2;SDS_P1;SDS_P2;PMS_P1;PMS_P2;Temp;Humidity;BMP_temperature;BMP_pressure;BME280_temperature;BME280_humidity;BME280_pressure;Samples;Min_cycle;Max_cycle;Signal;HPM_P1;HPM_P2
2022/09/25 00:00:46;;;;;;;4.60;2.35;;;8.80;99.90;;;;;;5103344;28;20149;-74
2022/09/25 00:03:13;;;;;;;3.58;2.03;;;8.70;99.90;;;;;;5103979;28;20035;-73
2022/09/25 00:05:41;;;;;;;3.50;1.90;;;8.70;99.90;;;;;;5104875;28;20549;-73
2022/09/25 00:08:08;;;;;;;5.97;2.00;;;8.70;99.90;;;;;;5099180;28;20089;-74
2022/09/25 00:10:34;;;;;;;6.35;2.47;;;8.70;99.90;;;;;;5099744;28;20040;-74
2022/09/25 00:12:59;;;;;;;5.70;2.28;;;8.70;99.90;;;;;;5104814;28;20118;-73
2022/09/25 00:15:25;;;;;;;4.53;2.20;;;8.70;99.90;;;;;;5110268;28;20511;-74
2022/09/25 00:17:51;;;;;;;5.28;2.63;;;8.70;99.90;;;;;;5108212;28;20066;-73
2022/09/25 00:20:19;;;;;;;5.25;2.72;;;8.70;99.90;;;;;;5108248;28;20043;-73
2022/09/25 00:22:46;;;;;;;5.50;3.03;;;8.70;99.90;;;;;;5105789;28;20056;-73
2022/09/25 00:25:15;;;;;;;2.70;1.77;;;8.60;99.90;;;;;;5109830;28;20046;-73
2022/09/25 00:27:42;;;;;;;6.03;1.90;;;8.60;99.90;;;;;;5104422;28;20431;-73
2022/09/25 00:30:10;;;;;;;3.30;1.83;;;8.60;99.90;;;;;;5103523;28;20062;-73
2022/09/25 00:32:36;;;;;;;3.33;1.65;;;8.50;99.90;;;;;;5088947;28;20079;-73
2022/09/25 00:35:02;;;;;;;2.22;1.70;;;8.50;99.90;;;;;;5109889;28;20099;-73
2022/09/25 00:37:28;;;;;;;6.30;1.65;;;8.50;99.90;;;;;;5104280;28;20442;-73
2022/09/25 00:39:54;;;;;;;6.65;1.80;;;8.40;99.90;;;;;;5102668;28;20118;-73
2022/09/25 00:42:21;;;;;;;4.85;1.70;;;8.40;99.90;;;;;;5108679;28;20032;-73
2022/09/25 00:44:57;;;;;;;5.93;2.13;;;8.40;99.90;;;;;;5112031;28;20493;-73
2022/09/25 00:47:31;;;;;;;4.47;1.80;;;8.40;99.90;;;;;;5112519;28;20104;-74
2022/09/25 00:50:00;;;;;;;4.68;1.85;;;8.40;99.90;;;;;;5103472;28;20058;-73
2022/09/25 00:52:27;;;;;;;3.83;1.70;;;8.40;99.90;;;;;;5112066;28;20046;-73
2022/09/25 00:54:57;;;;;;;2.85;1.98;;;8.50;99.90;;;;;;5085781;28;20047;-73
2022/09/25 00:57:25;;;;;;;5.70;2.05;;;8.50;99.90;;;;;;5095818;28;20070;-73
2022/09/25 00:59:58;;;;;;;4.97;2.25;;;8.40;99.90;;;;;;5106299;28;20069;-72
2022/09/25 01:02:27;;;;;;;5.47;2.30;;;8.40;99.90;;;;;;5108620;28;20476;-73
2022/09/25 01:04:59;;;;;;;4.32;1.73;;;8.40;99.90;;;;;;5083742;28;20023;-73
2022/09/25 01:07:24;;;;;;;4.70;2.45;;;8.40;99.90;;;;;;5107341;28;20043;-73
2022/09/25 01:09:51;;;;;;;4.00;2.30;;;8.40;99.90;;;;;;5111769;28;20042;-74
2022/09/25 01:12:17;;;;;;;5.57;2.40;;;8.40;99.90;;;;;;5103177;28;20389;-75
2022/09/25 01:14:42;;;;;;;7.20;2.28;;;8.40;99.90;;;;;;5103127;28;20054;-74
2022/09/25 01:17:34;;;;;;;5.20;2.15;;;8.50;99.90;;;;;;5092537;28;20031;-75
2022/09/25 01:20:34;;;;;;;2.92;1.20;;;8.50;99.90;;;;;;5097742;28;20045;-75
2022/09/25 01:23:19;;;;;;;3.50;1.33;;;8.40;99.90;;;;;;5104347;28;20110;-75
2022/09/25 01:25:55;;;;;;;5.05;1.65;;;8.40;99.90;;;;;;5107545;28;20051;-74
2022/09/25 01:28:51;;;;;;;7.10;1.75;;;8.30;99.90;;;;;;5102766;28;20400;-75
2022/09/25 01:31:39;;;;;;;5.68;1.45;;;8.40;99.90;;;;;;5099561;28;20035;-74
2022/09/25 01:34:21;;;;;;;7.63;1.85;;;8.30;99.90;;;;;;5105890;28;20047;-74
2022/09/25 01:36:57;;;;;;;5.50;1.92;;;8.30;99.90;;;;;;5109003;28;20063;-75
2022/09/25 01:39:36;;;;;;;5.88;1.73;;;8.30;99.90;;;;;;5112599;28;20119;-75
2022/09/25 01:42:11;;;;;;;3.10;1.40;;;8.30;99.90;;;;;;5108431;28;20039;-75
2022/09/25 01:44:53;;;;;;;4.22;1.60;;;8.30;99.90;;;;;;5101292;28;20047;-75
2022/09/25 01:47:26;;;;;;;4.50;1.83;;;8.30;99.90;;;;;;5088059;28;20032;-75
2022/09/25 01:50:02;;;;;;;4.88;1.45;;;8.20;99.90;;;;;;5105571;28;20039;-75
2022/09/25 01:52:38;;;;;;;3.75;1.48;;;8.20;99.90;;;;;;5111060;28;20124;-75
2022/09/25 01:55:29;;;;;;;7.10;1.70;;;8.20;99.90;;;;;;5104977;28;20093;-75
2022/09/25 01:58:03;;;;;;;4.10;1.63;;;8.20;99.90;;;;;;5101884;28;20035;-75
2022/09/25 02:00:28;;;;;;;3.97;1.30;;;8.20;99.90;;;;;;5102749;28;20043;-74
2022/09/25 02:03:10;;;;;;;2.67;1.40;;;8.10;99.90;;;;;;5102412;28;20035;-75
2022/09/25 02:05:53;;;;;;;3.50;1.40;;;8.10;99.90;;;;;;5109612;28;20069;-75
2022/09/25 02:08:34;;;;;;;4.80;1.80;;;8.00;99.90;;;;;;5109122;28;20028;-75
2022/09/25 02:11:02;;;;;;;3.90;1.88;;;8.00;99.90;;;;;;5095696;28;20619;-75
2022/09/25 02:13:36;;;;;;;4.32;1.77;;;8.00;99.90;;;;;;5109701;28;20047;-76
2022/09/25 02:16:08;;;;;;;4.90;1.48;;;8.00;99.90;;;;;;5099961;28;20501;-75
2022/09/25 02:21:24;;;;;;;;;;;8.00;99.90;;;;;;5106605;28;20052;-75
2022/09/25 02:24:11;;;;;;;5.50;1.50;;;8.00;99.90;;;;;;5104659;28;19920;-75
2022/09/25 02:26:37;;;;;;;3.35;1.23;;;7.90;99.90;;;;;;5106888;28;20109;-75
2022/09/25 02:29:03;;;;;;;2.70;1.38;;;7.80;99.90;;;;;;5110718;28;20043;-75
2022/09/25 02:31:37;;;;;;;3.38;1.30;;;7.80;99.90;;;;;;5107321;28;20050;-75
2022/09/25 02:34:03;;;;;;;;;;;7.70;99.90;;;;;;5103095;28;20036;-76
2022/09/25 02:36:28;;;;;;;5.18;2.03;;;7.80;99.90;;;;;;5103623;28;19916;-75
2022/09/25 02:38:55;;;;;;;9.68;1.80;;;7.70;99.90;;;;;;5102741;28;20038;-75
2022/09/25 02:41:38;;;;;;;5.57;1.50;;;7.70;99.90;;;;;;5110293;28;20065;-75
2022/09/25 02:44:27;;;;;;;3.75;2.10;;;7.80;99.90;;;;;;5104296;28;20032;-75
2022/09/25 02:47:23;;;;;;;4.00;1.65;;;7.70;99.90;;;;;;5101969;28;20066;-75
2022/09/25 02:50:05;;;;;;;5.75;1.58;;;7.70;99.90;;;;;;5102165;28;20043;-75
2022/09/25 02:52:36;;;;;;;3.28;1.60;;;7.70;99.90;;;;;;5106548;28;20028;-75
2022/09/25 02:55:08;;;;;;;4.45;1.65;;;7.70;99.90;;;;;;5103017;28;20397;-75
2022/09/25 02:57:50;;;;;;;5.00;1.67;;;7.70;99.90;;;;;;5101203;28;20497;-76
2022/09/25 03:00:16;;;;;;;4.20;1.65;;;7.70;99.90;;;;;;5098890;28;20078;-75
2022/09/25 03:02:44;;;;;;;4.45;1.90;;;7.70;99.90;;;;;;5107341;28;20527;-76
2022/09/25 03:05:12;;;;;;;6.35;1.70;;;7.70;99.90;;;;;;5099472;28;20043;-75
2022/09/25 03:10:24;;;;;;;4.45;1.60;;;7.70;99.90;;;;;;5109944;28;20039;-75
2022/09/25 03:12:50;;;;;;;4.60;1.80;;;7.60;99.90;;;;;;5106758;28;20038;-75
2022/09/25 03:15:17;;;;;;;5.70;1.95;;;7.60;99.90;;;;;;5099117;28;20493;-75
2022/09/25 03:17:42;;;;;;;2.85;1.40;;;7.60;99.90;;;;;;5104057;28;20115;-76
2022/09/25 03:20:08;;;;;;;3.95;1.60;;;7.60;99.90;;;;;;5097941;28;20631;-75
2022/09/25 03:22:35;;;;;;;6.72;1.98;;;7.60;99.90;;;;;;5097884;28;20133;-75
2022/09/25 03:25:00;;;;;;;5.07;1.40;;;7.60;99.90;;;;;;5110965;28;20138;-75
2022/09/25 03:27:28;;;;;;;4.18;1.40;;;7.60;99.90;;;;;;5105029;28;20532;-75
2022/09/25 03:29:54;;;;;;;3.60;1.63;;;7.70;99.90;;;;;;5092893;28;20039;-75
2022/09/25 03:32:20;;;;;;;2.88;1.67;;;7.70;99.90;;;;;;5087642;28;20040;-75
2022/09/25 03:34:46;;;;;;;3.45;1.92;;;7.70;99.90;;;;;;5109841;28;20416;-75
2022/09/25 03:37:11;;;;;;;4.75;1.70;;;7.70;99.90;;;;;;5087110;28;20028;-75
2022/09/25 03:39:37;;;;;;;5.60;1.77;;;7.80;99.90;;;;;;5105400;28;20035;-75
2022/09/25 03:42:03;;;;;;;6.90;1.75;;;7.80;99.90;;;;;;5102510;28;20031;-75
2022/09/25 03:44:29;;;;;;;6.85;1.77;;;7.90;99.90;;;;;;5109228;28;20040;-75
2022/09/25 03:46:54;;;;;;;5.30;1.67;;;7.90;99.90;;;;;;5082884;28;20114;-75
2022/09/25 03:49:21;;;;;;;3.45;1.70;;;7.90;99.90;;;;;;5103752;28;20077;-76
2022/09/25 03:51:47;;;;;;;2.88;1.60;;;7.90;99.90;;;;;;5104527;28;20043;-75
2022/09/25 03:54:12;;;;;;;4.72;1.95;;;7.90;99.90;;;;;;5097385;28;20118;-75
2022/09/25 03:56:38;;;;;;;4.65;1.90;;;7.90;99.90;;;;;;5103239;28;20959;-75
2022/09/25 03:59:04;;;;;;;8.45;1.80;;;7.90;99.90;;;;;;5106766;28;20085;-75
2022/09/25 04:01:29;;;;;;;4.03;1.58;;;7.80;99.90;;;;;;5100008;28;20043;-76
2022/09/25 04:03:55;;;;;;;3.08;1.58;;;7.80;99.90;;;;;;5103399;28;20034;-75
2022/09/25 04:06:24;;;;;;;4.78;1.70;;;7.80;99.90;;;;;;5104126;28;20873;-75
2022/09/25 04:08:50;;;;;;;5.30;1.63;;;7.70;99.90;;;;;;5113846;28;20039;-75
2022/09/25 04:11:18;;;;;;;4.28;1.73;;;7.70;99.90;;;;;;5104451;28;20062;-76
2022/09/25 04:13:44;;;;;;;4.80;1.83;;;7.70;99.90;;;;;;5111109;28;20745;-75
2022/09/25 04:16:10;;;;;;;4.30;1.40;;;7.70;99.90;;;;;;5108524;28;20070;-75
2022/09/25 04:18:36;;;;;;;6.22;1.95;;;7.60;99.90;;;;;;5107760;28;20046;-75
2022/09/25 04:21:07;;;;;;;3.17;1.52;;;7.60;99.90;;;;;;5111016;28;20032;-75
2022/09/25 04:23:33;;;;;;;3.97;1.70;;;7.60;99.90;;;;;;5093820;28;20119;-75
2022/09/25 04:25:59;;;;;;;4.88;1.63;;;7.50;99.90;;;;;;5113399;28;20076;-75
2022/09/25 04:28:26;;;;;;;4.72;1.58;;;7.60;99.90;;;;;;5114285;28;20063;-75
2022/09/25 04:30:51;;;;;;;5.75;1.60;;;7.50;99.90;;;;;;5097401;28;20500;-75
2022/09/25 04:36:02;;;;;;;4.18;1.77;;;7.50;99.90;;;;;;5095792;28;20044;-75
2022/09/25 04:38:31;;;;;;;5.53;1.52;;;7.50;99.90;;;;;;5093848;28;20076;-75
2022/09/25 04:40:58;;;;;;;5.28;1.60;;;7.40;99.90;;;;;;5093384;28;20043;-75
2022/09/25 04:43:26;;;;;;;4.32;2.17;;;7.40;99.90;;;;;;5093530;28;20036;-75
2022/09/25 04:45:51;;;;;;;4.95;1.63;;;7.30;99.90;;;;;;5106543;28;20039;-75
2022/09/25 04:48:17;;;;;;;5.60;1.50;;;7.30;99.90;;;;;;5100468;28;20543;-75
2022/09/25 04:50:47;;;;;;;4.13;1.50;;;7.30;99.90;;;;;;5107452;28;20076;-75
2022/09/25 04:53:13;;;;;;;6.13;1.80;;;7.30;99.90;;;;;;5106541;28;20074;-75
2022/09/25 04:55:39;;;;;;;3.03;1.50;;;7.30;99.90;;;;;;5113681;28;20519;-77
2022/09/25 04:58:04;;;;;;;5.30;1.30;;;7.30;99.90;;;;;;5099548;28;20031;-75
2022/09/25 05:00:31;;;;;;;5.50;2.03;;;7.30;99.90;;;;;;5110338;28;20535;-77
2022/09/25 05:02:57;;;;;;;3.60;1.75;;;7.20;99.90;;;;;;5093201;28;20460;-75
2022/09/25 05:05:26;;;;;;;6.10;2.00;;;7.20;99.90;;;;;;5092936;28;20035;-75
2022/09/25 05:07:59;;;;;;;3.55;1.55;;;7.20;99.90;;;;;;5095497;28;20051;-76
2022/09/25 05:10:28;;;;;;;6.40;1.60;;;7.20;99.90;;;;;;5110357;28;20047;-75
2022/09/25 05:12:58;;;;;;;6.40;1.10;;;7.20;99.90;;;;;;5097263;28;20042;-75
2022/09/25 05:15:25;;;;;;;3.10;1.38;;;7.10;99.90;;;;;;5109121;28;20047;-75
2022/09/25 05:18:01;;;;;;;2.38;1.33;;;7.10;99.90;;;;;;5107830;28;20066;-75
2022/09/25 05:20:27;;;;;;;3.80;2.10;;;7.00;99.90;;;;;;5100014;28;20044;-76
2022/09/25 05:22:55;;;;;;;3.20;1.90;;;7.00;99.90;;;;;;5100572;28;20062;-75
2022/09/25 05:25:22;;;;;;;2.72;1.50;;;7.10;99.90;;;;;;5101896;28;20490;-76
2022/09/25 05:27:49;;;;;;;4.07;1.73;;;7.00;99.90;;;;;;5112699;28;20505;-75
2022/09/25 05:30:15;;;;;;;5.20;2.10;;;7.10;99.90;;;;;;5113016;28;20039;-76
2022/09/25 05:32:48;;;;;;;5.72;1.98;;;7.10;99.90;;;;;;5108984;28;20055;-75
2022/09/25 05:35:15;;;;;;;4.30;2.08;;;7.10;99.90;;;;;;5100400;28;20035;-76
2022/09/25 05:37:40;;;;;;;3.75;1.92;;;7.10;99.90;;;;;;5108869;28;20039;-75
2022/09/25 05:40:06;;;;;;;3.20;2.00;;;7.00;99.90;;;;;;5112704;28;20431;-75
2022/09/25 05:42:32;;;;;;;3.60;1.70;;;7.00;99.90;;;;;;5086834;28;20034;-75
2022/09/25 05:44:57;;;;;;;4.97;1.58;;;7.00;99.90;;;;;;5084202;28;20114;-75
2022/09/25 05:47:23;;;;;;;3.63;1.58;;;7.00;99.90;;;;;;5097778;28;20042;-75
2022/09/25 05:49:48;;;;;;;3.42;2.03;;;7.10;99.90;;;;;;5091687;28;20036;-75
2022/09/25 05:52:14;;;;;;;4.38;1.75;;;7.10;99.90;;;;;;5098057;28;20043;-75
2022/09/25 05:54:39;;;;;;;3.65;1.73;;;7.10;99.90;;;;;;5111551;28;20031;-76
2022/09/25 05:57:05;;;;;;;3.40;1.77;;;7.10;99.90;;;;;;5112299;28;20088;-75
2022/09/25 05:59:30;;;;;;;5.65;2.10;;;7.20;99.90;;;;;;5106830;28;20071;-75
2022/09/25 06:01:56;;;;;;;4.03;1.70;;;7.20;99.90;;;;;;5109157;28;20043;-75
2022/09/25 06:04:21;;;;;;;3.22;1.52;;;7.20;99.90;;;;;;5107409;28;20039;-75
2022/09/25 06:06:47;;;;;;;2.90;1.58;;;7.30;99.90;;;;;;5110853;28;20115;-75
2022/09/25 06:09:12;;;;;;;4.35;1.88;;;7.30;99.90;;;;;;5111619;28;20041;-75
2022/09/25 06:11:40;;;;;;;4.38;1.67;;;7.30;99.90;;;;;;5111916;28;20075;-75
2022/09/25 06:14:05;;;;;;;4.00;1.42;;;7.40;99.90;;;;;;5107063;28;20504;-75
2022/09/25 06:16:31;;;;;;;4.25;1.70;;;7.40;99.90;;;;;;5112114;28;20097;-75
2022/09/25 06:18:56;;;;;;;3.30;1.60;;;7.50;99.90;;;;;;5105727;28;20130;-75
2022/09/25 06:21:22;;;;;;;3.92;1.50;;;7.50;99.90;;;;;;5102404;28;20119;-75
2022/09/25 06:23:48;;;;;;;2.28;1.45;;;7.60;99.90;;;;;;5103140;28;20044;-75
2022/09/25 06:26:13;;;;;;;4.88;2.20;;;7.60;99.90;;;;;;5104670;28;20031;-75
2022/09/25 06:28:39;;;;;;;4.25;1.73;;;7.70;99.90;;;;;;5108571;28;20404;-75
2022/09/25 06:31:05;;;;;;;4.32;1.70;;;7.80;99.90;;;;;;5103559;28;20515;-75
2022/09/25 06:33:30;;;;;;;6.38;2.00;;;7.80;99.90;;;;;;5104059;28;20035;-75
2022/09/25 06:35:56;;;;;;;5.20;2.10;;;7.90;99.90;;;;;;5106732;28;20032;-75
2022/09/25 06:38:22;;;;;;;3.75;2.20;;;8.00;99.90;;;;;;5098851;28;20455;-75
2022/09/25 06:40:47;;;;;;;4.15;2.30;;;8.10;99.90;;;;;;5078579;28;20075;-75
2022/09/25 06:43:14;;;;;;;7.03;2.08;;;8.20;99.90;;;;;;5102303;28;20031;-73
2022/09/25 06:45:41;;;;;;;5.03;2.10;;;8.30;99.90;;;;;;5104699;28;20067;-75
2022/09/25 06:48:09;;;;;;;4.75;2.60;;;8.40;99.90;;;;;;5097296;28;20067;-75
2022/09/25 06:50:45;;;;;;;5.55;2.35;;;8.50;99.90;;;;;;5073521;28;20040;-75
2022/09/25 06:53:11;;;;;;;7.80;2.20;;;8.60;99.90;;;;;;5090401;28;20502;-75
2022/09/25 06:55:38;;;;;;;5.13;2.00;;;8.70;99.90;;;;;;5090995;28;20131;-75
2022/09/25 06:58:05;;;;;;;4.38;2.10;;;8.90;99.90;;;;;;5090941;28;20040;-75
2022/09/25 07:00:31;;;;;;;5.55;2.35;;;9.00;99.90;;;;;;5090824;28;20048;-75
2022/09/25 07:05:43;;;;;;;7.13;2.55;;;9.20;99.90;;;;;;5090802;28;20043;-75
2022/09/25 07:08:11;;;;;;;5.55;2.30;;;9.40;99.90;;;;;;5091164;28;20042;-75
2022/09/25 07:10:37;;;;;;;6.55;2.38;;;9.50;99.90;;;;;;5090646;28;20036;-75
2022/09/25 07:13:03;;;;;;;6.75;2.63;;;9.60;99.90;;;;;;5090355;28;20520;-75
2022/09/25 07:15:30;;;;;;;7.80;2.35;;;9.70;99.90;;;;;;5074007;28;20051;-75
2022/09/25 07:17:55;;;;;;;7.07;2.10;;;10.00;99.90;;;;;;5073805;28;20044;-75
2022/09/25 07:20:21;;;;;;;7.20;2.42;;;10.10;99.90;;;;;;5090595;28;20127;-76
2022/09/25 07:22:46;;;;;;;9.90;2.20;;;10.30;99.90;;;;;;5090405;28;20038;-77
2022/09/25 07:25:12;;;;;;;4.45;1.75;;;10.50;99.90;;;;;;5091788;28;20569;-75
2022/09/25 07:27:38;;;;;;;6.97;1.83;;;10.60;99.90;;;;;;5091918;28;20119;-75
2022/09/25 07:30:04;;;;;;;8.30;1.85;;;10.90;99.90;;;;;;5090458;28;20036;-75
2022/09/25 07:32:30;;;;;;;5.72;1.70;;;11.00;99.90;;;;;;5073527;28;20119;-75
2022/09/25 07:34:57;;;;;;;4.63;2.03;;;11.20;99.90;;;;;;5090682;28;20386;-75
2022/09/25 07:37:23;;;;;;;7.38;1.83;;;11.40;99.90;;;;;;5090551;28;20649;-75
2022/09/25 07:39:49;;;;;;;5.07;1.58;;;11.50;99.90;;;;;;5091497;28;20036;-75
2022/09/25 07:42:15;;;;;;;5.60;1.67;;;11.80;99.90;;;;;;5091513;28;20654;-75
2022/09/25 07:44:41;;;;;;;10.07;1.60;;;12.00;99.90;;;;;;5094588;28;20109;-76
2022/09/25 07:47:07;;;;;;;5.90;1.40;;;12.30;99.90;;;;;;5094984;28;20406;-75
2022/09/25 07:49:33;;;;;;;4.57;1.30;;;12.60;99.90;;;;;;5095872;28;20107;-75
2022/09/25 07:52:04;;;;;;;5.28;1.17;;;12.90;99.90;;;;;;5077322;28;20485;-76
2022/09/25 07:54:30;;;;;;;6.30;1.67;;;13.20;99.90;;;;;;5108075;28;20047;-76
2022/09/25 07:56:56;;;;;;;10.48;1.70;;;13.40;99.90;;;;;;5094646;28;20028;-77
2022/09/25 07:59:22;;;;;;;3.33;1.45;;;13.40;99.90;;;;;;5095558;28;20034;-76
2022/09/25 08:01:47;;;;;;;7.85;1.20;;;13.50;99.90;;;;;;5095347;28;20127;-75
2022/09/25 08:04:13;;;;;;;6.28;1.40;;;13.50;99.90;;;;;;5114815;28;20035;-76
2022/09/25 08:06:38;;;;;;;8.52;1.77;;;13.50;99.90;;;;;;5110006;28;20075;-76
2022/09/25 08:09:04;;;;;;;6.68;1.55;;;13.50;99.90;;;;;;5094215;28;20036;-76
2022/09/25 08:11:30;;;;;;;5.85;1.40;;;13.40;99.90;;;;;;5093911;28;20052;-76
2022/09/25 08:13:56;;;;;;;6.70;1.83;;;13.40;99.90;;;;;;5094152;28;20055;-76
2022/09/25 08:16:22;;;;;;;4.35;1.15;;;13.30;99.90;;;;;;5094310;28;20133;-76
2022/09/25 08:18:48;;;;;;;5.03;0.98;;;13.20;99.90;;;;;;5094180;28;20036;-76
2022/09/25 08:21:17;;;;;;;5.60;1.52;;;13.10;99.90;;;;;;5093712;28;20036;-76
2022/09/25 08:23:44;;;;;;;3.83;1.23;;;13.10;99.90;;;;;;5077275;28;20429;-76
2022/09/25 08:26:09;;;;;;;6.75;1.60;;;13.10;99.90;;;;;;5093787;28;20047;-76
2022/09/25 08:28:35;;;;;;;7.00;1.40;;;13.10;99.90;;;;;;5093864;28;20036;-76
2022/09/25 08:31:02;;;;;;;6.53;1.52;;;13.10;99.90;;;;;;5094748;28;20074;-78
2022/09/25 08:33:29;;;;;;;7.07;1.35;;;13.10;99.90;;;;;;5093753;28;20040;-76
2022/09/25 08:36:00;;;;;;;5.95;1.30;;;13.10;99.90;;;;;;5076159;28;20040;-76
2022/09/25 08:38:27;;;;;;;4.25;1.13;;;13.00;99.90;;;;;;5095212;28;20039;-76
2022/09/25 08:41:02;;;;;;;3.15;0.98;;;13.00;99.90;;;;;;5093429;28;20097;-76
2022/09/25 08:43:30;;;;;;;4.13;1.10;;;12.80;99.90;;;;;;5093795;28;20051;-75
2022/09/25 08:49:09;;;;;;;2.00;0.82;;;12.50;99.90;;;;;;5093670;28;20465;-76
2022/09/25 08:51:43;;;;;;;4.10;0.93;;;12.40;99.90;;;;;;5093374;28;20044;-76
2022/09/25 08:54:19;;;;;;;2.17;0.90;;;12.30;99.90;;;;;;5109277;28;20488;-76
2022/09/25 08:57:00;;;;;;;4.57;1.52;;;12.30;99.90;;;;;;5113716;28;20052;-76
2022/09/25 08:59:39;;;;;;;3.60;1.20;;;12.20;99.90;;;;;;5095157;28;20036;-76
2022/09/25 09:02:37;;;;;;;2.97;1.00;;;12.20;99.90;;;;;;5092912;28;20443;-76
2022/09/25 09:05:14;;;;;;;6.43;1.17;;;12.10;99.90;;;;;;5092846;28;20525;-76
2022/09/25 09:07:45;;;;;;;5.78;0.90;;;12.20;99.90;;;;;;5092466;28;20040;-76
2022/09/25 09:10:47;;;;;;;5.18;0.90;;;12.20;99.90;;;;;;5093145;28;20122;-76
2022/09/25 09:13:23;;;;;;;3.83;1.10;;;12.20;99.90;;;;;;5092643;28;20070;-76
2022/09/25 09:15:59;;;;;;;5.53;1.02;;;12.20;99.90;;;;;;5093272;28;20059;-76
2022/09/25 09:18:27;;;;;;;4.60;1.30;;;12.30;99.90;;;;;;5076156;28;20036;-77
2022/09/25 09:20:55;;;;;;;5.55;1.17;;;12.30;99.90;;;;;;5092863;28;20443;-77
2022/09/25 09:23:23;;;;;;;4.65;1.30;;;12.30;99.90;;;;;;5092739;28;20047;-76
2022/09/25 09:26:04;;;;;;;3.80;1.20;;;12.30;99.90;;;;;;5092770;28;20040;-76
2022/09/25 09:28:55;;;;;;;4.68;1.30;;;12.40;99.90;;;;;;5095167;28;20055;-76
2022/09/25 09:31:36;;;;;;;3.15;1.00;;;12.40;99.90;;;;;;5111648;28;20047;-76
2022/09/25 09:34:27;;;;;;;3.67;1.17;;;12.50;99.90;;;;;;5092578;28;20055;-76
2022/09/25 09:37:01;;;;;;;4.85;0.90;;;12.50;99.90;;;;;;5068380;28;20083;-76
2022/09/25 09:39:33;;;;;;;;;;;12.50;99.90;;;;;;5091903;28;20540;-77
2022/09/25 09:42:21;;;;;;;3.13;1.02;;;12.50;99.90;;;;;;5091942;28;20428;-76
2022/09/25 09:45:12;;;;;;;3.80;0.70;;;12.60;99.90;;;;;;5092401;28;20035;-76
2022/09/25 09:47:56;;;;;;;3.03;0.82;;;12.70;99.90;;;;;;5092471;28;20089;-76
2022/09/25 09:50:40;;;;;;;5.47;1.00;;;12.80;99.90;;;;;;5092225;28;20036;-76
2022/09/25 09:53:09;;;;;;;;;;;13.10;99.90;;;;;;5082768;28;20050;-76
2022/09/25 09:55:44;;;;;;;4.20;1.02;;;13.30;99.90;;;;;;5083078;28;19923;-76
2022/09/25 09:58:22;;;;;;;2.85;1.27;;;13.40;99.90;;;;;;5092117;28;20074;-76
2022/09/25 10:00:48;;;;;;;5.40;1.30;;;13.60;99.90;;;;;;5092101;28;20110;-76
2022/09/25 10:03:22;;;;;;;4.78;1.00;;;13.60;99.90;;;;;;5091692;28;20064;-76
2022/09/25 10:05:49;;;;;;;4.72;1.40;;;13.70;99.90;;;;;;5091345;28;20127;-75
2022/09/25 10:08:16;;;;;;;3.78;1.10;;;13.80;99.90;;;;;;5074962;28;20032;-76
2022/09/25 10:10:46;;;;;;;2.95;1.10;;;13.90;99.90;;;;;;5093253;28;20075;-76
2022/09/25 10:13:19;;;;;;;5.28;1.20;;;14.10;99.90;;;;;;5090714;28;20127;-76
2022/09/25 10:15:51;;;;;;;4.45;1.08;;;14.20;99.90;;;;;;5091896;28;20055;-75
2022/09/25 10:18:18;;;;;;;3.28;1.50;;;14.20;99.90;;;;;;5091758;28;20036;-75
2022/09/25 10:20:52;;;;;;;4.78;1.63;;;14.30;99.90;;;;;;5090401;28;20040;-76
2022/09/25 10:23:45;;;;;;;6.57;1.67;;;14.20;99.90;;;;;;5090803;28;20032;-75
2022/09/25 10:26:37;;;;;;;4.78;1.35;;;14.20;99.90;;;;;;5091706;28;20039;-75
2022/09/25 10:29:24;;;;;;;5.40;1.25;;;14.20;99.90;;;;;;5091401;28;20040;-77
2022/09/25 10:31:58;;;;;;;3.15;1.05;;;14.10;99.90;;;;;;5091008;28;20054;-76
2022/09/25 10:34:27;;;;;;;2.72;0.90;;;14.20;99.90;;;;;;5090648;28;20152;-75
2022/09/25 10:36:53;;;;;;;2.83;1.13;;;14.20;99.90;;;;;;5090516;28;20036;-76
2022/09/25 10:39:27;;;;;;;5.93;1.00;;;14.40;99.90;;;;;;5091419;28;20044;-75
2022/09/25 10:41:53;;;;;;;4.60;1.02;;;14.50;99.90;;;;;;5091038;28;20533;-76
2022/09/25 10:44:22;;;;;;;4.47;1.10;;;14.70;99.90;;;;;;5091300;28;20036;-75
2022/09/25 10:52:52;;;;;;;2.95;0.60;;;15.20;99.90;;;;;;5061315;28;20408;-76
2022/09/25 10:55:31;;;;;;;3.58;0.55;;;15.20;99.90;;;;;;5091527;28;20062;-76
2022/09/25 10:58:02;;;;;;;1.95;0.60;;;15.20;99.90;;;;;;5091061;28;20093;-76
2022/09/25 11:00:29;;;;;;;1.13;0.43;;;15.20;99.90;;;;;;5090119;28;20040;-75
2022/09/25 11:03:01;;;;;;;2.97;0.70;;;15.30;99.90;;;;;;5090251;28;20040;-76
2022/09/25 11:05:32;;;;;;;2.28;0.40;;;15.30;99.90;;;;;;5090990;28;20114;-76
2022/09/25 11:08:01;;;;;;;2.42;0.73;;;15.40;99.90;;;;;;5090759;28;20502;-75
2022/09/25 11:10:58;;;;;;;3.38;0.50;;;15.60;99.90;;;;;;5090854;28;20048;-75
2022/09/25 11:13:27;;;;;;;1.38;0.40;;;15.60;99.90;;;;;;5077611;28;20083;-75
2022/09/25 11:15:57;;;;;;;1.52;0.40;;;15.60;99.90;;;;;;5090758;28;20544;-76
2022/09/25 11:18:45;;;;;;;2.92;0.35;;;15.60;99.90;;;;;;5090805;28;20044;-76
2022/09/25 11:21:36;;;;;;;1.70;0.35;;;15.50;99.90;;;;;;5090048;28;20123;-76
2022/09/25 11:24:39;;;;;;;1.63;0.65;;;15.40;99.90;;;;;;5089943;28;20066;-75
2022/09/25 11:27:15;;;;;;;2.13;0.70;;;15.40;99.90;;;;;;5090569;28;20071;-77
2022/09/25 11:30:04;;;;;;;3.05;0.30;;;15.50;99.90;;;;;;5090793;28;20043;-76
2022/09/25 11:32:35;;;;;;;1.67;0.30;;;15.60;99.90;;;;;;5090093;28;20066;-76
2022/09/25 11:35:38;;;;;;;2.50;0.60;;;15.70;99.90;;;;;;5090582;28;20086;-75
2022/09/25 11:41:10;;;;;;;1.45;0.30;;;16.00;99.90;;;;;;5090389;28;20040;-75
2022/09/25 11:41:30;;;;;;;5.95;0.65;;;16.20;99.90;;;;;;5090301;28;20101;-75
2022/09/25 11:44:23;;;;;;;3.55;0.88;;;16.60;99.90;;;;;;5073581;28;20036;-76
2022/09/25 11:47:19;;;;;;;3.95;0.60;;;16.80;99.90;;;;;;5090381;28;20119;-75
2022/09/25 11:49:50;;;;;;;2.22;0.60;;;16.80;99.90;;;;;;5090313;28;20127;-76
2022/09/25 11:52:16;;;;;;;1.52;0.43;;;17.00;99.90;;;;;;5073265;28;20126;-76
2022/09/25 11:55:02;;;;;;;2.22;0.50;;;17.10;99.90;;;;;;5089052;28;20059;-77
2022/09/25 11:57:37;;;;;;;3.13;0.70;;;17.20;99.90;;;;;;5090457;28;20058;-76
2022/09/25 12:00:30;;;;;;;2.28;0.55;;;17.00;99.90;;;;;;5090341;28;20086;-76
2022/09/25 12:03:12;;;;;;;2.65;0.50;;;17.10;99.90;;;;;;5090150;28;20047;-76
2022/09/25 12:05:44;;;;;;;3.92;0.68;;;17.20;99.90;;;;;;5090221;28;20537;-76
2022/09/25 12:08:40;;;;;;;3.08;0.60;;;17.10;99.90;;;;;;5090622;28;20055;-76
2022/09/25 12:11:10;;;;;;;3.65;0.70;;;17.40;99.90;;;;;;5090134;28;20093;-76
2022/09/25 12:13:48;;;;;;;2.95;0.73;;;18.00;99.90;;;;;;5090221;28;20044;-77
2022/09/25 12:16:19;;;;;;;2.55;0.50;;;18.30;99.90;;;;;;5089641;28;20417;-75
2022/09/25 12:19:09;;;;;;;2.25;0.60;;;18.30;99.90;;;;;;5089927;28;20409;-75
2022/09/25 12:21:51;;;;;;;1.98;0.75;;;17.80;99.90;;;;;;5089354;28;20044;-76
2022/09/25 12:24:30;;;;;;;2.50;0.65;;;17.40;99.90;;;;;;5090202;28;20036;-77
2022/09/25 12:27:28;;;;;;;3.03;0.50;;;17.10;99.90;;;;;;5090526;28;20428;-75
2022/09/25 12:30:06;;;;;;;3.08;0.60;;;17.10;99.90;;;;;;5093968;28;20039;-76
2022/09/25 12:32:57;;;;;;;2.88;1.25;;;17.40;99.90;;;;;;5093675;28;20047;-75
2022/09/25 12:35:37;;;;;;;1.83;0.50;;;17.70;99.90;;;;;;5094079;28;20379;-76
2022/09/25 12:38:10;;;;;;;2.22;0.50;;;18.30;99.90;;;;;;5076909;28;20036;-76
2022/09/25 12:40:42;;;;;;;2.72;0.38;;;18.40;99.90;;;;;;5093704;28;20047;-76
2022/09/25 12:43:23;;;;;;;3.63;0.57;;;18.10;99.90;;;;;;5093756;28;20425;-76
2022/09/25 12:46:20;;;;;;;3.33;0.60;;;17.70;99.90;;;;;;5076857;28;20036;-76
2022/09/25 12:48:53;;;;;;;0.95;0.28;;;17.20;99.90;;;;;;5093878;28;20379;-75
2022/09/25 12:51:47;;;;;;;2.00;0.43;;;16.90;99.90;;;;;;5076385;28;20036;-75
2022/09/25 12:54:22;;;;;;;1.80;0.60;;;16.50;99.90;;;;;;5093769;28;20401;-76
2022/09/25 12:57:08;;;;;;;3.65;0.70;;;16.30;99.90;;;;;;5093454;28;20048;-76
2022/09/25 12:59:43;;;;;;;4.50;0.65;;;16.10;99.90;;;;;;5093559;28;20451;-75
2022/09/25 13:02:39;;;;;;;2.90;0.60;;;16.10;99.90;;;;;;5091996;28;20044;-75
2022/09/25 13:05:09;;;;;;;2.88;0.60;;;16.30;99.90;;;;;;5093314;28;20071;-76
2022/09/25 13:07:38;;;;;;;1.95;0.70;;;16.40;99.90;;;;;;5102170;28;20038;-76
2022/09/25 13:10:38;;;;;;;1.83;0.50;;;16.70;99.90;;;;;;5113807;28;20035;-75
2022/09/25 13:13:10;;;;;;;2.88;0.40;;;17.20;99.90;;;;;;5089466;28;20044;-75
2022/09/25 13:15:38;;;;;;;2.63;0.60;;;17.40;99.90;;;;;;5113526;28;20087;-77
2022/09/25 13:18:06;;;;;;;3.00;0.40;;;17.60;99.90;;;;;;5113578;28;20067;-75
2022/09/25 13:20:32;;;;;;;2.90;0.60;;;17.70;99.90;;;;;;5112503;28;20048;-75
2022/09/25 13:23:03;;;;;;;1.95;0.40;;;17.70;99.90;;;;;;5113326;28;20032;-75
2022/09/25 13:25:40;;;;;;;2.88;0.70;;;18.00;99.90;;;;;;5112288;28;20036;-75
2022/09/25 13:28:08;;;;;;;2.58;0.82;;;17.80;99.90;;;;;;5092905;28;20032;-75
2022/09/25 13:30:34;;;;;;;2.28;0.40;;;17.70;99.90;;;;;;5092323;28;20174;-75
2022/09/25 13:33:02;;;;;;;3.00;0.90;;;17.80;99.90;;;;;;5092776;28;20182;-75
2022/09/25 13:35:30;;;;;;;1.35;0.38;;;18.00;99.90;;;;;;5092644;28;20040;-76
2022/09/25 13:40:41;;;;;;;3.85;1.00;;;18.20;99.90;;;;;;5075846;28;20051;-76